KWST/WST METAR and TAF weather

Enter ICAO airport designator
Station Type Date Time Source
KWST METAR 2019/04/24 15:53 UTC NOAA

KWST 241553Z AUTO 29008KT 250V320 10SM BKN038 19/10 A2969 RMK AO2 SLP054 T01940100


Station Type Date Time Source
KWST Decoded METAR 2019/04/24 15:53 UTC NOAA

WESTERLY STATE AIRPORT, RI, United States (KWST) 41-21N 071-48W 21M
Apr 24, 2019 - 11:53 AM EDT / 2019.04.24 1553 UTC
Wind: from the WNW (290 degrees) at 9 MPH (8 KT) (direction variable):0
Visibility: 10 mile(s):0
Sky conditions: mostly cloudy
Temperature: 66.9 F (19.4 C)
Dew Point: 50.0 F (10.0 C)
Relative Humidity: 54%
Pressure (altimeter): 29.69 in. Hg (1005 hPa)
ob: KWST 241553Z AUTO 29008KT 250V320 10SM BKN038 19/10 A2969 RMK AO2 SLP054 T01940100
cycle: 16

Station Type Date Time Source
KWST TAF UTC NOAA

Error!

Example: see airport list